Time;durP1;ratioP1;P1;durP2;ratioP2;P2;SDS_P1;SDS_P2;PMS_P1;PMS_P2;Temp;Humidity;BMP_temperature;BMP_pressure;BME280_temperature;BME280_humidity;BME280_pressure;Samples;Min_cycle;Max_cycle;Signal;HPM_P1;HPM_P2
2024/03/29 01:44:29;;;;;;;7.68;3.70;;;;;;;;;;4318312;32;318151;-78
2024/03/29 01:46:57;;;;;;;8.32;3.65;;;;;;;;;;4333546;32;317197;-78
2024/03/29 01:49:27;;;;;;;13.25;3.45;;;;;;;;;;4322684;32;315393;-78
2024/03/29 01:51:54;;;;;;;6.35;3.58;;;;;;;;;;4334523;32;318166;-78
2024/03/29 01:54:21;;;;;;;7.50;3.55;;;;;;;;;;4323520;32;315292;-77
2024/03/29 01:56:49;;;;;;;4.87;3.00;;;;;;;;;;4327724;32;316919;-77
2024/03/29 01:59:18;;;;;;;6.50;3.28;;;;;;;;;;4324221;32;317064;-77
2024/03/29 02:01:46;;;;;;;7.93;3.33;;;;;;;;;;4334653;32;317302;-77
2024/03/29 02:04:15;;;;;;;9.30;3.90;;;;;;;;;;4333230;32;317340;-77
2024/03/29 02:06:43;;;;;;;7.25;3.97;;;;;;;;;;4304632;32;417936;-77
2024/03/29 02:09:10;;;;;;;11.40;5.82;;;;;;;;;;4319693;32;316901;-77
2024/03/29 02:11:38;;;;;;;11.80;6.37;;;;;;;;;;4309576;32;324092;-77
2024/03/29 02:14:06;;;;;;;17.17;6.20;;;;;;;;;;4318684;32;317939;-77
2024/03/29 02:16:38;;;;;;;13.10;5.60;;;;;;;;;;4301890;32;318231;-77
2024/03/29 02:19:05;;;;;;;13.17;6.77;;;;;;;;;;4319470;32;317653;-77
2024/03/29 02:21:41;;;;;;;13.93;6.83;;;;;;;;;;4324376;32;318154;-77
2024/03/29 02:24:27;;;;;;;13.32;6.78;;;;;;;;;;4325282;32;318334;-77
2024/03/29 02:26:56;;;;;;;15.63;7.62;;;;;;;;;;4303619;32;418284;-77
2024/03/29 02:29:22;;;;;;;17.48;8.65;;;;;;;;;;4323877;32;317605;-77
2024/03/29 02:31:51;;;;;;;25.07;10.97;;;;;;;;;;4332781;32;316607;-78
2024/03/29 02:34:18;;;;;;;21.33;11.53;;;;;;;;;;4324048;32;319355;-78
2024/03/29 02:36:45;;;;;;;20.85;10.10;;;;;;;;;;4324949;32;317545;-77
2024/03/29 02:39:12;;;;;;;18.70;9.37;;;;;;;;;;4335431;32;318730;-77
2024/03/29 02:41:44;;;;;;;13.35;7.28;;;;;;;;;;4321777;32;418665;-78
2024/03/29 02:44:15;;;;;;;20.40;7.90;;;;;;;;;;4332805;32;318223;-78
2024/03/29 02:46:42;;;;;;;17.40;8.50;;;;;;;;;;4313522;32;418986;-77
2024/03/29 02:49:10;;;;;;;17.08;9.35;;;;;;;;;;4332306;32;317838;-77
2024/03/29 02:51:37;;;;;;;19.12;10.18;;;;;;;;;;4314587;32;332718;-77
2024/03/29 02:54:05;;;;;;;27.90;11.73;;;;;;;;;;4332346;32;318755;-77
2024/03/29 02:56:31;;;;;;;29.30;13.60;;;;;;;;;;4314851;32;318567;-77
2024/03/29 02:58:59;;;;;;;25.63;12.33;;;;;;;;;;4333493;32;319027;-77
2024/03/29 03:01:26;;;;;;;30.63;12.10;;;;;;;;;;4332777;32;319555;-77
2024/03/29 03:03:54;;;;;;;16.33;8.80;;;;;;;;;;4332380;32;317676;-77
2024/03/29 03:06:21;;;;;;;16.07;5.80;;;;;;;;;;4322152;32;318005;-77
2024/03/29 03:11:33;;;;;;;17.03;6.83;;;;;;;;;;4324212;32;318059;-78
2024/03/29 03:14:00;;;;;;;13.07;9.17;;;;;;;;;;4332278;32;316871;-77
2024/03/29 03:16:27;;;;;;;22.67;14.20;;;;;;;;;;4316236;32;317930;-77
2024/03/29 03:18:54;;;;;;;20.87;12.00;;;;;;;;;;4332307;32;357270;-77
2024/03/29 03:21:22;;;;;;;21.80;10.70;;;;;;;;;;4322637;32;319660;-77
2024/03/29 03:23:49;;;;;;;16.53;8.90;;;;;;;;;;4333476;32;318585;-77
2024/03/29 03:26:16;;;;;;;25.07;7.37;;;;;;;;;;4309562;32;317974;-77
2024/03/29 03:28:42;;;;;;;16.13;6.13;;;;;;;;;;4311050;32;316529;-77
2024/03/29 03:31:12;;;;;;;16.47;6.17;;;;;;;;;;4323017;32;318154;-77
2024/03/29 03:33:37;;;;;;;15.57;5.83;;;;;;;;;;4322911;32;317795;-77
2024/03/29 03:36:06;;;;;;;13.63;5.67;;;;;;;;;;4323646;33;317970;-77
2024/03/29 03:38:34;;;;;;;12.87;5.53;;;;;;;;;;4326797;32;321589;-77
2024/03/29 03:41:02;;;;;;;8.03;4.43;;;;;;;;;;4333590;32;354660;-77
2024/03/29 03:43:29;;;;;;;8.20;4.30;;;;;;;;;;4323197;32;315669;-77
2024/03/29 03:46:01;;;;;;;10.07;3.83;;;;;;;;;;4328964;32;316966;-77
2024/03/29 03:48:29;;;;;;;9.45;4.20;;;;;;;;;;4322538;32;347497;-77
2024/03/29 03:50:57;;;;;;;10.93;4.83;;;;;;;;;;4332726;32;317076;-78
2024/03/29 03:53:23;;;;;;;8.35;4.15;;;;;;;;;;4322253;32;318342;-78
2024/03/29 03:55:51;;;;;;;9.95;4.53;;;;;;;;;;4331430;32;316480;-78
2024/03/29 03:58:17;;;;;;;13.50;5.78;;;;;;;;;;4321183;32;317435;-77
2024/03/29 04:00:47;;;;;;;20.20;8.90;;;;;;;;;;4323177;32;317908;-77
2024/03/29 04:03:13;;;;;;;14.15;7.85;;;;;;;;;;4331638;33;347179;-77
2024/03/29 04:05:41;;;;;;;16.33;7.05;;;;;;;;;;4322802;32;372721;-77
2024/03/29 04:08:07;;;;;;;12.68;6.15;;;;;;;;;;4346783;32;318004;-77
2024/03/29 04:10:39;;;;;;;17.10;8.05;;;;;;;;;;4331576;32;318465;-77
2024/03/29 04:13:06;;;;;;;20.00;8.57;;;;;;;;;;4350594;32;317913;-77
2024/03/29 04:15:34;;;;;;;20.23;8.73;;;;;;;;;;4338894;32;318446;-78
2024/03/29 04:18:00;;;;;;;19.17;8.03;;;;;;;;;;4349366;32;318294;-77
2024/03/29 04:20:26;;;;;;;10.83;7.47;;;;;;;;;;4326031;32;317732;-77
2024/03/29 04:22:55;;;;;;;11.70;6.87;;;;;;;;;;4337862;32;316751;-77
2024/03/29 04:25:22;;;;;;;15.53;5.97;;;;;;;;;;4338547;32;318703;-77
2024/03/29 04:27:49;;;;;;;10.87;5.53;;;;;;;;;;4345490;32;318179;-77
2024/03/29 04:30:16;;;;;;;11.05;5.78;;;;;;;;;;4326600;32;317875;-77
2024/03/29 04:32:42;;;;;;;15.47;5.73;;;;;;;;;;4342304;32;317875;-77
2024/03/29 04:35:10;;;;;;;14.53;7.33;;;;;;;;;;4341054;32;317313;-77
2024/03/29 04:37:38;;;;;;;15.50;7.30;;;;;;;;;;4333803;32;318328;-77
2024/03/29 04:40:08;;;;;;;21.43;10.80;;;;;;;;;;4349429;32;317810;-77
2024/03/29 04:42:35;;;;;;;23.90;16.07;;;;;;;;;;4332437;32;319251;-77
2024/03/29 04:45:05;;;;;;;30.17;17.73;;;;;;;;;;4349275;32;319047;-77
2024/03/29 04:47:33;;;;;;;34.73;19.47;;;;;;;;;;4339382;32;319050;-78
2024/03/29 04:50:00;;;;;;;32.27;20.77;;;;;;;;;;4348936;32;357048;-77
2024/03/29 04:52:29;;;;;;;33.73;19.63;;;;;;;;;;4331654;32;318828;-77
2024/03/29 04:54:57;;;;;;;26.77;17.00;;;;;;;;;;4349371;32;318195;-77
2024/03/29 04:57:25;;;;;;;25.27;11.90;;;;;;;;;;4340615;32;319691;-77
2024/03/29 04:59:55;;;;;;;20.27;11.00;;;;;;;;;;4350174;32;318792;-76
2024/03/29 05:02:25;;;;;;;19.30;10.63;;;;;;;;;;4336642;32;318589;-78
2024/03/29 05:04:53;;;;;;;21.00;10.63;;;;;;;;;;4347523;32;318946;-78
2024/03/29 05:07:22;;;;;;;18.73;10.45;;;;;;;;;;4339990;32;319403;-76
2024/03/29 05:09:49;;;;;;;29.10;13.53;;;;;;;;;;4345880;32;319103;-78
2024/03/29 05:12:16;;;;;;;19.77;11.73;;;;;;;;;;4339641;32;317628;-77
2024/03/29 05:14:49;;;;;;;25.67;13.93;;;;;;;;;;4329069;32;318406;-77
2024/03/29 05:17:16;;;;;;;22.83;13.83;;;;;;;;;;4325758;32;319403;-78
2024/03/29 05:19:44;;;;;;;37.90;17.27;;;;;;;;;;4329005;32;317808;-77
2024/03/29 05:22:12;;;;;;;37.90;19.30;;;;;;;;;;4341710;32;347220;-77
2024/03/29 05:24:40;;;;;;;55.80;28.17;;;;;;;;;;4309128;32;419529;-78
2024/03/29 05:27:10;;;;;;;39.63;20.20;;;;;;;;;;4349415;32;319324;-76
2024/03/29 05:29:37;;;;;;;39.80;20.33;;;;;;;;;;4326166;32;318968;-76
2024/03/29 05:32:09;;;;;;;47.40;23.23;;;;;;;;;;4348992;32;319375;-76
2024/03/29 05:34:37;;;;;;;45.70;23.83;;;;;;;;;;4318857;32;319382;-76
2024/03/29 05:37:09;;;;;;;34.93;16.27;;;;;;;;;;4344300;32;318707;-76
2024/03/29 05:39:37;;;;;;;35.53;16.93;;;;;;;;;;4338049;32;319284;-77
2024/03/29 05:42:05;;;;;;;36.13;17.73;;;;;;;;;;4348631;32;317949;-76
2024/03/29 05:44:33;;;;;;;24.87;12.00;;;;;;;;;;4325316;32;319080;-76
2024/03/29 05:47:00;;;;;;;26.53;9.53;;;;;;;;;;4332566;32;319137;-76
2024/03/29 05:49:35;;;;;;;21.43;10.17;;;;;;;;;;4324633;32;316855;-78
2024/03/29 05:52:04;;;;;;;20.70;9.80;;;;;;;;;;4332309;32;348709;-77
2024/03/29 05:54:31;;;;;;;22.03;11.17;;;;;;;;;;4316361;32;317940;-77
2024/03/29 05:56:58;;;;;;;22.93;9.43;;;;;;;;;;4331321;32;317780;-77
2024/03/29 05:59:26;;;;;;;29.30;9.53;;;;;;;;;;4311416;32;318346;-78
2024/03/29 06:01:53;;;;;;;14.30;6.53;;;;;;;;;;4333310;32;317973;-77
2024/03/29 06:04:29;;;;;;;12.07;5.97;;;;;;;;;;4319943;32;318319;-78
2024/03/29 06:06:57;;;;;;;19.03;7.60;;;;;;;;;;4318805;33;317985;-76
2024/03/29 06:09:25;;;;;;;14.30;7.30;;;;;;;;;;4307935;33;317822;-76
2024/03/29 06:11:53;;;;;;;16.20;6.77;;;;;;;;;;4320454;32;318422;-78
2024/03/29 06:17:25;;;;;;;7.97;5.03;;;;;;;;;;4333721;32;317828;-78
2024/03/29 06:20:00;;;;;;;14.07;3.93;;;;;;;;;;4334953;32;418563;-78
2024/03/29 06:22:30;;;;;;;15.20;3.33;;;;;;;;;;4331908;32;317814;-77
2024/03/29 06:24:59;;;;;;;10.18;4.53;;;;;;;;;;4346987;32;318457;-76
2024/03/29 06:27:27;;;;;;;12.77;4.40;;;;;;;;;;4338588;32;318238;-76
2024/03/29 06:29:55;;;;;;;15.00;4.28;;;;;;;;;;4349748;32;317941;-76
2024/03/29 06:32:22;;;;;;;14.95;5.60;;;;;;;;;;4342358;32;318456;-76
2024/03/29 06:34:50;;;;;;;13.15;5.32;;;;;;;;;;4349587;32;318113;-76
2024/03/29 06:37:20;;;;;;;10.35;4.85;;;;;;;;;;4335523;32;317688;-76
2024/03/29 06:39:52;;;;;;;10.48;4.78;;;;;;;;;;4338216;32;316905;-75
2024/03/29 06:42:19;;;;;;;8.93;4.60;;;;;;;;;;4342127;32;316352;-77
2024/03/29 06:44:46;;;;;;;13.43;3.95;;;;;;;;;;4355405;32;316719;-77
2024/03/29 06:47:14;;;;;;;13.77;5.70;;;;;;;;;;4349714;32;317780;-77
2024/03/29 06:49:45;;;;;;;15.80;5.30;;;;;;;;;;4335854;32;417401;-78
2024/03/29 06:52:12;;;;;;;14.40;7.20;;;;;;;;;;4347046;32;317494;-77
2024/03/29 06:54:41;;;;;;;9.02;5.32;;;;;;;;;;4317523;32;317964;-77
2024/03/29 06:57:11;;;;;;;11.12;5.18;;;;;;;;;;4335020;32;316881;-78
2024/03/29 06:59:39;;;;;;;13.15;3.85;;;;;;;;;;4331565;32;327639;-78
2024/03/29 07:02:06;;;;;;;8.88;3.37;;;;;;;;;;4330700;32;318329;-78
2024/03/29 07:04:32;;;;;;;5.12;2.42;;;;;;;;;;4315228;32;317400;-78
2024/03/29 07:07:00;;;;;;;17.17;4.50;;;;;;;;;;4335603;32;355701;-77
2024/03/29 07:09:26;;;;;;;11.32;3.28;;;;;;;;;;4335993;32;318319;-77
2024/03/29 07:11:54;;;;;;;7.97;3.33;;;;;;;;;;4346393;32;318340;-77
2024/03/29 07:14:23;;;;;;;15.40;3.53;;;;;;;;;;4326656;32;316830;-78
2024/03/29 07:16:50;;;;;;;8.30;3.30;;;;;;;;;;4333360;32;317549;-78
2024/03/29 07:19:17;;;;;;;6.18;3.40;;;;;;;;;;4334924;32;316918;-78
2024/03/29 07:21:44;;;;;;;11.65;3.33;;;;;;;;;;4345129;32;317231;-77
2024/03/29 07:24:10;;;;;;;12.15;4.35;;;;;;;;;;4338688;32;318426;-78
2024/03/29 07:26:37;;;;;;;12.90;4.47;;;;;;;;;;4315332;32;318285;-78
2024/03/29 07:29:05;;;;;;;8.75;3.08;;;;;;;;;;4334570;32;317801;-78
2024/03/29 07:31:33;;;;;;;11.93;4.20;;;;;;;;;;4335770;32;317327;-78
2024/03/29 07:34:00;;;;;;;15.73;3.60;;;;;;;;;;4345677;32;318487;-77
2024/03/29 07:36:31;;;;;;;10.68;3.37;;;;;;;;;;4329257;32;318278;-77
2024/03/29 07:38:58;;;;;;;6.12;3.20;;;;;;;;;;4345924;32;318533;-77
2024/03/29 07:41:24;;;;;;;12.70;4.32;;;;;;;;;;4336944;32;317657;-77
2024/03/29 07:43:56;;;;;;;16.83;4.18;;;;;;;;;;4344064;32;330494;-78
2024/03/29 07:46:23;;;;;;;7.53;4.03;;;;;;;;;;4338834;32;318571;-78
2024/03/29 07:48:51;;;;;;;7.00;3.20;;;;;;;;;;4342907;32;317534;-78
2024/03/29 07:51:18;;;;;;;9.70;3.40;;;;;;;;;;4336978;32;317463;-78
2024/03/29 07:53:44;;;;;;;9.88;3.00;;;;;;;;;;4344179;32;317371;-77
2024/03/29 07:56:12;;;;;;;9.77;4.35;;;;;;;;;;4350052;32;316740;-79
2024/03/29 07:58:39;;;;;;;12.40;4.43;;;;;;;;;;4314460;32;408622;-79
2024/03/29 08:01:06;;;;;;;16.23;4.03;;;;;;;;;;4341618;32;317546;-78
2024/03/29 08:03:34;;;;;;;13.98;4.43;;;;;;;;;;4337108;32;322569;-79
2024/03/29 08:06:04;;;;;;;8.18;2.78;;;;;;;;;;4347296;32;317605;-80
2024/03/29 08:08:31;;;;;;;6.93;2.75;;;;;;;;;;4331518;32;316512;-79
2024/03/29 08:10:59;;;;;;;15.90;3.33;;;;;;;;;;4349051;32;316330;-79
2024/03/29 08:13:26;;;;;;;10.27;2.50;;;;;;;;;;4330835;32;317465;-79
2024/03/29 08:16:01;;;;;;;6.97;2.47;;;;;;;;;;4340097;32;317311;-78
2024/03/29 08:18:29;;;;;;;9.25;2.30;;;;;;;;;;4318161;32;316524;-79
2024/03/29 08:20:56;;;;;;;6.97;2.40;;;;;;;;;;4347024;32;316349;-80
2024/03/29 08:23:24;;;;;;;4.03;2.67;;;;;;;;;;4336319;32;316575;-79
2024/03/29 08:25:52;;;;;;;6.68;2.33;;;;;;;;;;4348688;32;317664;-78
2024/03/29 08:28:19;;;;;;;13.15;2.37;;;;;;;;;;4337840;32;330007;-80
2024/03/29 08:30:46;;;;;;;9.07;2.50;;;;;;;;;;4341599;32;318255;-78
2024/03/29 08:33:14;;;;;;;8.88;2.25;;;;;;;;;;4337298;32;316284;-78
2024/03/29 08:35:43;;;;;;;4.65;2.42;;;;;;;;;;4321920;32;417010;-79
2024/03/29 08:38:10;;;;;;;11.55;2.17;;;;;;;;;;4333387;32;317243;-78
2024/03/29 08:40:42;;;;;;;6.12;2.08;;;;;;;;;;4316574;32;317672;-78
2024/03/29 08:43:08;;;;;;;7.35;2.80;;;;;;;;;;4337531;32;317318;-78
2024/03/29 08:45:40;;;;;;;8.18;2.70;;;;;;;;;;4324454;32;317713;-79
2024/03/29 08:48:08;;;;;;;7.68;2.60;;;;;;;;;;4333270;32;316492;-77
2024/03/29 08:50:35;;;;;;;5.72;2.35;;;;;;;;;;4317515;32;317332;-79
2024/03/29 08:53:04;;;;;;;9.35;2.60;;;;;;;;;;4328317;32;316550;-78
2024/03/29 08:55:36;;;;;;;9.63;2.60;;;;;;;;;;4309162;33;317009;-78
2024/03/29 08:58:04;;;;;;;6.10;2.37;;;;;;;;;;4310758;32;317480;-78
2024/03/29 09:00:32;;;;;;;10.13;2.58;;;;;;;;;;4334323;32;317273;-77
2024/03/29 09:03:01;;;;;;;6.15;2.53;;;;;;;;;;4316389;32;318141;-77
2024/03/29 09:05:28;;;;;;;4.28;1.80;;;;;;;;;;4335507;32;317218;-79
2024/03/29 09:07:56;;;;;;;6.07;2.10;;;;;;;;;;4328034;32;317172;-78
2024/03/29 09:10:24;;;;;;;10.55;2.42;;;;;;;;;;4347984;32;316808;-78
2024/03/29 09:12:50;;;;;;;8.57;2.20;;;;;;;;;;4337958;32;318288;-78
2024/03/29 09:15:19;;;;;;;3.20;1.62;;;;;;;;;;4341359;32;340924;-78
2024/03/29 09:17:46;;;;;;;4.25;1.75;;;;;;;;;;4337369;32;316994;-79
2024/03/29 09:20:13;;;;;;;6.32;2.12;;;;;;;;;;4346473;32;317263;-77
2024/03/29 09:22:44;;;;;;;8.40;2.50;;;;;;;;;;4347730;32;317300;-77
2024/03/29 09:25:15;;;;;;;7.10;2.17;;;;;;;;;;4312268;32;416781;-77
2024/03/29 09:27:42;;;;;;;4.25;1.70;;;;;;;;;;4309763;32;315852;-79
2024/03/29 09:30:11;;;;;;;10.32;2.00;;;;;;;;;;4338482;32;316721;-79
2024/03/29 09:32:39;;;;;;;8.50;2.05;;;;;;;;;;4345818;32;318264;-79
2024/03/29 09:35:06;;;;;;;5.93;2.20;;;;;;;;;;4317814;32;317231;-80
2024/03/29 09:37:35;;;;;;;2.35;1.45;;;;;;;;;;4341444;32;317045;-79
2024/03/29 09:40:03;;;;;;;4.28;1.73;;;;;;;;;;4324207;32;317115;-79
2024/03/29 09:42:33;;;;;;;7.12;1.85;;;;;;;;;;4339413;32;317310;-78
2024/03/29 09:45:00;;;;;;;7.72;1.87;;;;;;;;;;4331466;32;317257;-79
2024/03/29 09:47:29;;;;;;;5.87;2.50;;;;;;;;;;4348268;32;317515;-80
2024/03/29 09:49:59;;;;;;;6.12;1.70;;;;;;;;;;4336272;32;316655;-79
2024/03/29 09:52:27;;;;;;;5.00;1.95;;;;;;;;;;4343601;32;315766;-79
2024/03/29 09:54:57;;;;;;;3.10;1.40;;;;;;;;;;4326298;32;317031;-80
2024/03/29 09:57:29;;;;;;;10.52;2.15;;;;;;;;;;4328718;32;343737;-80
2024/03/29 09:59:56;;;;;;;3.50;1.27;;;;;;;;;;4334465;32;317550;-80
2024/03/29 10:02:30;;;;;;;6.45;1.35;;;;;;;;;;4341923;32;317892;-80
2024/03/29 10:05:02;;;;;;;7.78;1.35;;;;;;;;;;4325077;32;317312;-80
2024/03/29 10:07:32;;;;;;;9.15;1.92;;;;;;;;;;4344368;32;316573;-80
2024/03/29 10:09:59;;;;;;;6.78;1.42;;;;;;;;;;4332609;32;337548;-80
2024/03/29 10:12:26;;;;;;;4.00;1.25;;;;;;;;;;4331056;32;316242;-79
2024/03/29 10:15:00;;;;;;;4.70;1.35;;;;;;;;;;4321756;32;316686;-79
2024/03/29 10:17:27;;;;;;;5.12;1.10;;;;;;;;;;4331551;32;316483;-80
2024/03/29 10:20:04;;;;;;;2.78;0.90;;;;;;;;;;4325534;32;334476;-80
2024/03/29 10:22:45;;;;;;;3.72;1.10;;;;;;;;;;4323613;32;316791;-79
2024/03/29 10:25:14;;;;;;;7.00;1.75;;;;;;;;;;4311556;32;415062;-80
2024/03/29 10:27:41;;;;;;;3.10;1.23;;;;;;;;;;4337802;32;316428;-79
2024/03/29 10:30:09;;;;;;;7.15;1.25;;;;;;;;;;4336494;32;316360;-80
2024/03/29 10:32:44;;;;;;;4.70;1.80;;;;;;;;;;4347671;32;316625;-78
2024/03/29 10:35:11;;;;;;;7.72;4.97;;;;;;;;;;4320774;32;415247;-79
2024/03/29 10:37:44;;;;;;;1.10;0.85;;;;;;;;;;4346135;32;316562;-78
2024/03/29 10:40:15;;;;;;;4.40;1.02;;;;;;;;;;4333073;32;415656;-78
2024/03/29 10:42:42;;;;;;;4.10;1.45;;;;;;;;;;4344222;32;317090;-78
2024/03/29 10:45:13;;;;;;;3.22;1.50;;;;;;;;;;4328666;32;316536;-78
2024/03/29 10:47:46;;;;;;;3.85;1.23;;;;;;;;;;4326292;32;315560;-78
2024/03/29 10:50:16;;;;;;;6.45;1.20;;;;;;;;;;4309960;32;417038;-79
2024/03/29 10:52:54;;;;;;;5.45;2.25;;;;;;;;;;4332546;32;316527;-78
2024/03/29 10:55:30;;;;;;;5.85;1.10;;;;;;;;;;4316110;32;416609;-78
2024/03/29 10:58:01;;;;;;;6.60;1.15;;;;;;;;;;4304195;32;317722;-79
2024/03/29 11:00:37;;;;;;;4.70;1.65;;;;;;;;;;4330998;32;316682;-78
2024/03/29 11:03:17;;;;;;;4.68;1.52;;;;;;;;;;4321991;32;315519;-79
2024/03/29 11:05:54;;;;;;;4.60;1.50;;;;;;;;;;4341780;32;321293;-79
2024/03/29 11:08:34;;;;;;;6.62;1.40;;;;;;;;;;4309623;32;417806;-78
2024/03/29 11:11:07;;;;;;;1.87;0.90;;;;;;;;;;4330642;32;316719;-79
2024/03/29 11:13:42;;;;;;;23.02;2.30;;;;;;;;;;4343572;32;316946;-78
2024/03/29 11:16:09;;;;;;;4.37;1.25;;;;;;;;;;4338817;32;317362;-78
2024/03/29 11:18:42;;;;;;;8.27;1.48;;;;;;;;;;4329592;32;315809;-78
2024/03/29 11:21:14;;;;;;;10.07;1.80;;;;;;;;;;4302830;32;316459;-77
2024/03/29 11:23:51;;;;;;;2.97;1.10;;;;;;;;;;4331937;32;316754;-78
2024/03/29 11:26:22;;;;;;;4.68;0.80;;;;;;;;;;4299089;33;416287;-78
2024/03/29 11:28:53;;;;;;;5.85;1.17;;;;;;;;;;4319297;32;340679;-78
2024/03/29 11:31:27;;;;;;;7.75;1.60;;;;;;;;;;4318459;33;315624;-78
2024/03/29 11:33:54;;;;;;;7.47;1.23;;;;;;;;;;4326100;32;338694;-77
2024/03/29 11:36:23;;;;;;;5.53;1.20;;;;;;;;;;4347796;32;316629;-76
2024/03/29 11:38:53;;;;;;;4.50;1.60;;;;;;;;;;4332310;32;317153;-77
2024/03/29 11:41:23;;;;;;;4.78;2.03;;;;;;;;;;4340706;32;317063;-78
2024/03/29 11:43:50;;;;;;;2.35;0.85;;;;;;;;;;4334857;32;317316;-77
2024/03/29 11:46:18;;;;;;;8.43;1.73;;;;;;;;;;4347349;32;317391;-77
2024/03/29 11:48:46;;;;;;;2.37;1.05;;;;;;;;;;4326793;32;317338;-77
2024/03/29 11:51:14;;;;;;;4.00;1.42;;;;;;;;;;4324564;33;317222;-77
2024/03/29 11:53:41;;;;;;;1.75;1.02;;;;;;;;;;4332913;33;317488;-77
2024/03/29 11:56:11;;;;;;;3.45;1.00;;;;;;;;;;4323026;33;317132;-77
2024/03/29 11:58:38;;;;;;;6.20;1.27;;;;;;;;;;4336542;32;317167;-77
2024/03/29 12:01:06;;;;;;;8.00;1.48;;;;;;;;;;4322542;32;317043;-77
2024/03/29 12:03:34;;;;;;;3.30;1.40;;;;;;;;;;4338366;32;317370;-77
2024/03/29 12:06:02;;;;;;;10.52;2.22;;;;;;;;;;4320988;33;347674;-77
2024/03/29 12:08:30;;;;;;;3.65;1.25;;;;;;;;;;4331681;32;317691;-78
2024/03/29 12:10:58;;;;;;;5.82;1.15;;;;;;;;;;4329654;32;328565;-78
2024/03/29 12:13:26;;;;;;;13.13;1.65;;;;;;;;;;4345296;32;317328;-78
2024/03/29 12:15:53;;;;;;;5.25;1.25;;;;;;;;;;4323585;32;318079;-79
2024/03/29 12:18:21;;;;;;;2.33;1.00;;;;;;;;;;4333229;32;318361;-77
2024/03/29 12:20:50;;;;;;;2.90;1.27;;;;;;;;;;4327953;32;356583;-77
2024/03/29 12:23:17;;;;;;;5.68;1.10;;;;;;;;;;4339290;32;317405;-77
2024/03/29 12:25:45;;;;;;;4.37;1.02;;;;;;;;;;4343734;32;317409;-77
2024/03/29 12:28:12;;;;;;;3.50;0.93;;;;;;;;;;4312963;33;416093;-77
2024/03/29 12:30:42;;;;;;;5.53;1.50;;;;;;;;;;4342084;32;317379;-78
2024/03/29 12:33:10;;;;;;;4.72;1.23;;;;;;;;;;4331785;32;317232;-77
2024/03/29 12:35:37;;;;;;;4.25;1.20;;;;;;;;;;4348906;32;316484;-77
2024/03/29 12:38:06;;;;;;;5.95;1.30;;;;;;;;;;4339828;32;317177;-78
2024/03/29 12:40:35;;;;;;;2.65;1.20;;;;;;;;;;4350345;32;317573;-78
2024/03/29 12:43:04;;;;;;;3.72;1.35;;;;;;;;;;4329785;32;317024;-78
2024/03/29 12:45:32;;;;;;;3.00;1.08;;;;;;;;;;4349521;32;317473;-78
2024/03/29 12:48:00;;;;;;;3.60;1.08;;;;;;;;;;4340077;32;317098;-78
2024/03/29 12:50:28;;;;;;;5.47;1.50;;;;;;;;;;4349676;32;317290;-78
2024/03/29 12:52:56;;;;;;;4.62;1.65;;;;;;;;;;4338310;32;316339;-78
2024/03/29 12:55:24;;;;;;;4.80;1.20;;;;;;;;;;4335424;32;317351;-78
2024/03/29 12:57:53;;;;;;;2.20;0.93;;;;;;;;;;4324140;32;318069;-78
2024/03/29 13:00:20;;;;;;;2.92;0.90;;;;;;;;;;4334793;32;318019;-78
2024/03/29 13:02:47;;;;;;;4.60;1.50;;;;;;;;;;4340210;32;317367;-78
2024/03/29 13:05:15;;;;;;;6.28;1.15;;;;;;;;;;4343422;32;316538;-78
2024/03/29 13:07:42;;;;;;;3.42;1.37;;;;;;;;;;4345718;32;317048;-78
2024/03/29 13:10:13;;;;;;;4.75;1.75;;;;;;;;;;4338118;32;317250;-78
2024/03/29 13:12:42;;;;;;;3.10;2.30;;;;;;;;;;4349123;32;316472;-77
2024/03/29 13:15:17;;;;;;;8.15;1.35;;;;;;;;;;4333210;32;316617;-77
2024/03/29 13:17:43;;;;;;;2.95;1.02;;;;;;;;;;4344627;32;317036;-77
2024/03/29 13:20:11;;;;;;;6.62;0.90;;;;;;;;;;4327168;32;317151;-77
2024/03/29 13:22:41;;;;;;;5.10;1.20;;;;;;;;;;4347971;32;316582;-78
2024/03/29 13:25:09;;;;;;;3.83;1.42;;;;;;;;;;4331855;32;317071;-77
2024/03/29 13:27:37;;;;;;;3.83;1.20;;;;;;;;;;4347357;32;317206;-77
2024/03/29 13:30:05;;;;;;;4.30;1.05;;;;;;;;;;4327332;32;317079;-78
2024/03/29 13:32:36;;;;;;;3.67;1.65;;;;;;;;;;4347710;32;316838;-78
2024/03/29 13:35:05;;;;;;;2.15;0.95;;;;;;;;;;4332949;32;317410;-78
2024/03/29 13:37:32;;;;;;;4.28;1.23;;;;;;;;;;4348518;32;341341;-79
2024/03/29 13:40:00;;;;;;;3.58;1.20;;;;;;;;;;4336592;32;355134;-78
2024/03/29 13:42:27;;;;;;;5.82;1.45;;;;;;;;;;4346774;32;317229;-78
2024/03/29 13:44:54;;;;;;;4.05;1.10;;;;;;;;;;4331066;32;317208;-78
2024/03/29 13:47:21;;;;;;;4.87;1.45;;;;;;;;;;4339863;32;317068;-78
2024/03/29 13:49:50;;;;;;;4.80;1.50;;;;;;;;;;4334658;32;335473;-78
2024/03/29 13:52:17;;;;;;;3.97;1.52;;;;;;;;;;4347833;32;316918;-78
2024/03/29 13:54:46;;;;;;;6.22;1.27;;;;;;;;;;4337158;32;335759;-78
2024/03/29 13:57:15;;;;;;;4.80;1.10;;;;;;;;;;4324215;32;416522;-79
2024/03/29 13:59:43;;;;;;;3.00;1.15;;;;;;;;;;4347676;32;316569;-78
2024/03/29 14:02:11;;;;;;;3.87;1.15;;;;;;;;;;4323141;32;417914;-79
2024/03/29 14:04:38;;;;;;;9.32;1.30;;;;;;;;;;4342156;32;317297;-79
2024/03/29 14:07:07;;;;;;;7.25;1.10;;;;;;;;;;4331822;32;317351;-78
2024/03/29 14:09:35;;;;;;;4.03;1.00;;;;;;;;;;4347843;32;317269;-78
2024/03/29 14:12:03;;;;;;;2.37;1.20;;;;;;;;;;4335422;32;317178;-79
2024/03/29 14:14:31;;;;;;;4.25;1.30;;;;;;;;;;4342827;32;316672;-78
2024/03/29 14:17:03;;;;;;;2.90;1.05;;;;;;;;;;4331561;32;316533;-79
2024/03/29 14:19:30;;;;;;;4.53;1.52;;;;;;;;;;4344395;32;317341;-78
2024/03/29 14:21:57;;;;;;;3.40;1.48;;;;;;;;;;4334083;32;317302;-78
2024/03/29 14:24:24;;;;;;;8.43;1.50;;;;;;;;;;4333236;32;317188;-78
2024/03/29 14:26:51;;;;;;;3.05;1.52;;;;;;;;;;4325234;32;317050;-78
2024/03/29 14:29:21;;;;;;;3.47;1.48;;;;;;;;;;4326632;32;316804;-78
2024/03/29 14:31:49;;;;;;;10.35;1.73;;;;;;;;;;4331161;32;316433;-79
2024/03/29 14:34:16;;;;;;;3.30;1.20;;;;;;;;;;4342186;32;318456;-78
2024/03/29 14:36:42;;;;;;;9.88;1.62;;;;;;;;;;4347981;32;316446;-78
2024/03/29 14:39:12;;;;;;;5.70;1.33;;;;;;;;;;4331388;32;317111;-78
2024/03/29 14:41:39;;;;;;;6.00;2.37;;;;;;;;;;4347218;32;317068;-78
2024/03/29 14:44:07;;;;;;;7.12;1.85;;;;;;;;;;4337044;32;317534;-79
2024/03/29 14:46:34;;;;;;;9.70;2.12;;;;;;;;;;4348928;32;316500;-78
2024/03/29 14:49:04;;;;;;;5.72;1.55;;;;;;;;;;4331567;32;317546;-79
2024/03/29 14:51:32;;;;;;;7.85;1.83;;;;;;;;;;4348137;32;317812;-78
2024/03/29 14:53:58;;;;;;;3.03;1.27;;;;;;;;;;4337942;32;317062;-78
2024/03/29 14:56:25;;;;;;;6.03;1.98;;;;;;;;;;4346700;32;317521;-78
2024/03/29 14:58:52;;;;;;;7.18;1.55;;;;;;;;;;4335287;32;317355;-78
2024/03/29 15:01:18;;;;;;;5.47;1.70;;;;;;;;;;4335797;32;321554;-78
2024/03/29 15:03:45;;;;;;;3.62;1.33;;;;;;;;;;4335385;32;317633;-78
2024/03/29 15:06:13;;;;;;;4.20;1.58;;;;;;;;;;4344321;32;317216;-78
2024/03/29 15:08:40;;;;;;;11.60;1.70;;;;;;;;;;4329591;32;317723;-79
2024/03/29 15:11:07;;;;;;;3.90;1.20;;;;;;;;;;4311323;32;354695;-78
2024/03/29 15:13:33;;;;;;;6.85;1.42;;;;;;;;;;4330318;32;333268;-77
2024/03/29 15:16:01;;;;;;;4.47;1.58;;;;;;;;;;4322014;32;317067;-76
2024/03/29 15:18:28;;;;;;;2.35;1.12;;;;;;;;;;4330740;32;317230;-77
2024/03/29 15:20:56;;;;;;;3.67;1.42;;;;;;;;;;4331795;32;316992;-77
2024/03/29 15:23:26;;;;;;;4.70;1.50;;;;;;;;;;4342388;32;317358;-77
2024/03/29 15:25:53;;;;;;;4.47;1.65;;;;;;;;;;4321699;32;317697;-78
2024/03/29 15:31:15;;;;;;;9.38;1.85;;;;;;;;;;4316068;32;317218;-77
2024/03/29 15:33:42;;;;;;;3.83;1.85;;;;;;;;;;4335396;32;317124;-77
2024/03/29 15:36:10;;;;;;;2.72;1.20;;;;;;;;;;4321089;33;317280;-77
2024/03/29 15:38:38;;;;;;;5.15;2.20;;;;;;;;;;4331193;33;317400;-78
2024/03/29 15:41:07;;;;;;;5.40;1.65;;;;;;;;;;4319738;32;317151;-76
2024/03/29 15:43:35;;;;;;;3.87;1.60;;;;;;;;;;4331888;33;316662;-76
2024/03/29 15:46:02;;;;;;;9.77;1.67;;;;;;;;;;4320325;33;327819;-78
2024/03/29 15:48:29;;;;;;;2.80;1.70;;;;;;;;;;4330272;33;320966;-79
2024/03/29 15:50:56;;;;;;;6.22;1.70;;;;;;;;;;4319771;33;326979;-78
2024/03/29 15:53:22;;;;;;;3.80;1.60;;;;;;;;;;4329947;33;317241;-77
2024/03/29 15:55:51;;;;;;;4.12;1.50;;;;;;;;;;4321235;33;317290;-77
2024/03/29 15:58:18;;;;;;;3.22;1.30;;;;;;;;;;4329781;33;316465;-77
2024/03/29 16:00:45;;;;;;;7.05;1.67;;;;;;;;;;4329754;33;340371;-77
2024/03/29 16:03:12;;;;;;;7.37;1.62;;;;;;;;;;4325975;32;416245;-78
2024/03/29 16:05:41;;;;;;;4.15;1.75;;;;;;;;;;4343318;32;317237;-78
2024/03/29 16:08:08;;;;;;;5.20;1.80;;;;;;;;;;4332259;32;317889;-78
2024/03/29 16:10:36;;;;;;;2.40;1.40;;;;;;;;;;4342641;32;317396;-78
2024/03/29 16:13:07;;;;;;;6.03;1.83;;;;;;;;;;4329665;32;317542;-78
2024/03/29 16:15:33;;;;;;;7.30;1.90;;;;;;;;;;4331955;32;317567;-78
2024/03/29 16:18:00;;;;;;;9.95;2.10;;;;;;;;;;4335520;32;317220;-78
2024/03/29 16:20:26;;;;;;;7.93;2.30;;;;;;;;;;4345312;32;316711;-78
2024/03/29 16:22:52;;;;;;;5.72;1.85;;;;;;;;;;4337352;32;317145;-78